Konya, Turkey
Current Conditions -  °F | °C
As of 3:50 AM on Saturday 20 Dec 2014 (Local Time) from LTAN Reporting Station
Broken Clouds Broken Clouds  
Wind Chill: 39°   Ceiling: 10000
Heat Index: 39°   Visibility: 4mi
Dew Point: 36°   Wind: 3mph
Humidity: 87%   Direction: 300°WNW
Pressure: 30.15"   Gusts: NA
Location:  37.88°N, 32.48°E
Report Text: LTAN 200150Z 30003KT 260V350 6000 SCT035 BKN100 04/02 Q1021 NOSIG
Loading
Personal Weather Stations






























Interactive Weather Map New forecast layout! Learn more

10-Day Weather Forecast

Advertisements
Track Severe Weather on mobile